sensor_id;sensor_type;location;lat;lon;timestamp;pressure;altitude;pressure_sealevel;temperature;humidity
40075;BME280;26529;51.530;11.754;2023-04-19T00:00:05;101029.31;;;19.85;47.91
40075;BME280;26529;51.530;11.754;2023-04-19T00:02:34;101023.09;;;19.84;47.98
40075;BME280;26529;51.530;11.754;2023-04-19T00:05:00;101022.25;;;19.84;47.83
40075;BME280;26529;51.530;11.754;2023-04-19T00:07:26;101019.59;;;19.84;48.13
40075;BME280;26529;51.530;11.754;2023-04-19T00:09:51;101022.25;;;19.84;47.88
40075;BME280;26529;51.530;11.754;2023-04-19T00:12:17;101013.47;;;19.82;47.95
40075;BME280;26529;51.530;11.754;2023-04-19T00:14:43;101012.56;;;19.83;47.97
40075;BME280;26529;51.530;11.754;2023-04-19T00:17:08;101016.06;;;19.83;47.90
40075;BME280;26529;51.530;11.754;2023-04-19T00:19:36;101020.56;;;19.83;47.89
40075;BME280;26529;51.530;11.754;2023-04-19T00:22:01;101014.22;;;19.85;47.90
40075;BME280;26529;51.530;11.754;2023-04-19T00:24:27;101016.16;;;19.82;47.91
40075;BME280;26529;51.530;11.754;2023-04-19T00:26:53;101014.28;;;19.84;47.78
40075;BME280;26529;51.530;11.754;2023-04-19T00:29:18;101005.44;;;19.83;47.88
40075;BME280;26529;51.530;11.754;2023-04-19T00:31:44;101009.91;;;19.83;47.94
40075;BME280;26529;51.530;11.754;2023-04-19T00:34:09;101010.81;;;19.82;47.77
40075;BME280;26529;51.530;11.754;2023-04-19T00:36:35;101004.59;;;19.83;47.84
40075;BME280;26529;51.530;11.754;2023-04-19T00:39:00;101009.91;;;19.83;47.84
40075;BME280;26529;51.530;11.754;2023-04-19T00:41:26;101006.44;;;19.80;47.74
40075;BME280;26529;51.530;11.754;2023-04-19T00:43:51;101013.47;;;19.82;47.71
40075;BME280;26529;51.530;11.754;2023-04-19T00:46:16;101007.31;;;19.81;47.89
40075;BME280;26529;51.530;11.754;2023-04-19T00:48:44;101009.09;;;19.80;47.91
40075;BME280;26529;51.530;11.754;2023-04-19T00:51:11;101004.75;;;19.79;47.79
40075;BME280;26529;51.530;11.754;2023-04-19T00:53:37;101009.09;;;19.80;47.85
40075;BME280;26529;51.530;11.754;2023-04-19T00:56:03;101010.06;;;19.79;47.85
40075;BME280;26529;51.530;11.754;2023-04-19T00:58:30;101011.78;;;19.80;47.92
40075;BME280;26529;51.530;11.754;2023-04-19T01:00:56;101005.59;;;19.80;47.80
40075;BME280;26529;51.530;11.754;2023-04-19T01:03:22;101002.00;;;19.81;48.04
40075;BME280;26529;51.530;11.754;2023-04-19T01:05:49;101011.78;;;19.80;47.79
40075;BME280;26529;51.530;11.754;2023-04-19T01:08:15;101001.31;;;19.77;47.87
40075;BME280;26529;51.530;11.754;2023-04-19T01:10:40;101003.03;;;19.78;47.93
40075;BME280;26529;51.530;11.754;2023-04-19T01:13:07;101004.75;;;19.79;47.91
40075;BME280;26529;51.530;11.754;2023-04-19T01:15:36;101001.13;;;19.80;47.80
40075;BME280;26529;51.530;11.754;2023-04-19T01:18:02;100999.41;;;19.79;47.81
40075;BME280;26529;51.530;11.754;2023-04-19T01:20:27;101003.91;;;19.79;47.78
40075;BME280;26529;51.530;11.754;2023-04-19T01:22:53;101004.75;;;19.79;47.80
40075;BME280;26529;51.530;11.754;2023-04-19T01:25:19;101003.03;;;19.78;47.86
40075;BME280;26529;51.530;11.754;2023-04-19T01:27:44;101001.31;;;19.77;47.84
40075;BME280;26529;51.530;11.754;2023-04-19T01:30:10;100998.66;;;19.77;47.86
40075;BME280;26529;51.530;11.754;2023-04-19T01:32:36;100995.03;;;19.78;47.52
40075;BME280;26529;51.530;11.754;2023-04-19T01:35:01;101005.69;;;19.78;47.94
40075;BME280;26529;51.530;11.754;2023-04-19T01:37:29;100993.31;;;19.77;47.87
40075;BME280;26529;51.530;11.754;2023-04-19T01:39:54;100997.69;;;19.78;47.77
40075;BME280;26529;51.530;11.754;2023-04-19T01:42:19;101000.44;;;19.77;47.67
40075;BME280;26529;51.530;11.754;2023-04-19T01:44:45;100998.66;;;19.77;48.04
40075;BME280;26529;51.530;11.754;2023-04-19T01:47:10;101007.59;;;19.76;47.75
40075;BME280;26529;51.530;11.754;2023-04-19T01:49:38;100997.88;;;19.75;47.70
40075;BME280;26529;51.530;11.754;2023-04-19T01:52:03;101004.03;;;19.76;47.76
40075;BME280;26529;51.530;11.754;2023-04-19T01:54:29;100999.59;;;19.76;47.82
40075;BME280;26529;51.530;11.754;2023-04-19T01:56:54;100994.28;;;19.76;47.76
40075;BME280;26529;51.530;11.754;2023-04-19T01:59:20;100997.00;;;19.75;47.90
40075;BME280;26529;51.530;11.754;2023-04-19T02:01:46;100994.34;;;19.75;47.82
40075;BME280;26529;51.530;11.754;2023-04-19T02:04:11;100998.72;;;19.76;47.80
40075;BME280;26529;51.530;11.754;2023-04-19T02:06:36;100996.13;;;19.74;47.94
40075;BME280;26529;51.530;11.754;2023-04-19T02:09:03;100997.00;;;19.75;47.76
40075;BME280;26529;51.530;11.754;2023-04-19T02:11:29;100992.56;;;19.75;47.76
40075;BME280;26529;51.530;11.754;2023-04-19T02:13:54;100985.41;;;19.76;47.68
40075;BME280;26529;51.530;11.754;2023-04-19T02:16:20;100997.88;;;19.75;47.76
40075;BME280;26529;51.530;11.754;2023-04-19T02:18:45;100981.91;;;19.75;47.77
40075;BME280;26529;51.530;11.754;2023-04-19T02:21:11;100990.81;;;19.74;47.73
40075;BME280;26529;51.530;11.754;2023-04-19T02:23:36;100993.47;;;19.74;47.70
40075;BME280;26529;51.530;11.754;2023-04-19T02:26:02;100989.09;;;19.73;47.74
40075;BME280;26529;51.530;11.754;2023-04-19T02:28:31;100984.72;;;19.72;47.84
40075;BME280;26529;51.530;11.754;2023-04-19T02:30:57;100984.72;;;19.72;47.65
40075;BME280;26529;51.530;11.754;2023-04-19T02:33:24;100993.59;;;19.73;47.75
40075;BME280;26529;51.530;11.754;2023-04-19T02:35:51;100987.38;;;19.72;47.81
40075;BME280;26529;51.530;11.754;2023-04-19T02:38:17;100985.69;;;19.71;47.78
40075;BME280;26529;51.530;11.754;2023-04-19T02:40:42;100981.13;;;19.73;47.70
40075;BME280;26529;51.530;11.754;2023-04-19T02:43:08;100985.69;;;19.71;48.10
40075;BME280;26529;51.530;11.754;2023-04-19T02:45:33;100978.56;;;19.72;47.72
40075;BME280;26529;51.530;11.754;2023-04-19T02:47:59;100985.69;;;19.71;47.72
40075;BME280;26529;51.530;11.754;2023-04-19T02:50:26;100981.22;;;19.72;47.70
40075;BME280;26529;51.530;11.754;2023-04-19T02:52:52;100986.56;;;19.72;47.76
40075;BME280;26529;51.530;11.754;2023-04-19T02:55:19;100982.94;;;19.73;47.77
40075;BME280;26529;51.530;11.754;2023-04-19T02:57:48;100980.34;;;19.71;47.75
40075;BME280;26529;51.530;11.754;2023-04-19T03:00:14;100983.97;;;19.70;47.70
40075;BME280;26529;51.530;11.754;2023-04-19T03:02:47;100975.13;;;19.70;47.83
40075;BME280;26529;51.530;11.754;2023-04-19T03:05:13;100974.28;;;19.69;47.77
40075;BME280;26529;51.530;11.754;2023-04-19T03:07:39;100984.91;;;19.69;47.78
40075;BME280;26529;51.530;11.754;2023-04-19T03:10:05;100980.44;;;19.70;47.76
40075;BME280;26529;51.530;11.754;2023-04-19T03:12:31;100974.16;;;19.71;47.85
40075;BME280;26529;51.530;11.754;2023-04-19T03:14:56;100979.59;;;19.69;47.74
40075;BME280;26529;51.530;11.754;2023-04-19T03:17:23;100980.34;;;19.71;47.65
40075;BME280;26529;51.530;11.754;2023-04-19T03:19:48;100972.53;;;19.68;47.81
40075;BME280;26529;51.530;11.754;2023-04-19T03:22:14;100978.78;;;19.67;47.92
40075;BME280;26529;51.530;11.754;2023-04-19T03:24:39;100974.28;;;19.69;47.83
40075;BME280;26529;51.530;11.754;2023-04-19T03:27:16;100969.88;;;19.68;47.84
40075;BME280;26529;51.530;11.754;2023-04-19T03:29:44;100970.75;;;19.69;47.71
40075;BME280;26529;51.530;11.754;2023-04-19T03:32:10;100969.97;;;19.66;47.78
40075;BME280;26529;51.530;11.754;2023-04-19T03:34:36;100969.88;;;19.68;47.83
40075;BME280;26529;51.530;11.754;2023-04-19T03:37:01;100961.88;;;19.68;47.67
40075;BME280;26529;51.530;11.754;2023-04-19T03:39:28;100962.84;;;19.67;47.80
40075;BME280;26529;51.530;11.754;2023-04-19T03:41:59;100965.50;;;19.67;47.71
40075;BME280;26529;51.530;11.754;2023-04-19T03:44:34;100963.78;;;19.66;47.69
40075;BME280;26529;51.530;11.754;2023-04-19T03:47:03;100964.53;;;19.68;47.70
40075;BME280;26529;51.530;11.754;2023-04-19T03:49:32;100962.84;;;19.67;47.84
40075;BME280;26529;51.530;11.754;2023-04-19T03:52:03;100962.84;;;19.67;47.68
40075;BME280;26529;51.530;11.754;2023-04-19T03:54:29;100961.13;;;19.66;47.73
40075;BME280;26529;51.530;11.754;2023-04-19T03:56:55;100961.13;;;19.66;47.69
40075;BME280;26529;51.530;11.754;2023-04-19T03:59:21;100968.25;;;19.65;47.80
40075;BME280;26529;51.530;11.754;2023-04-19T04:01:47;100957.50;;;19.67;47.72
40075;BME280;26529;51.530;11.754;2023-04-19T04:04:13;100964.72;;;19.65;47.67
40075;BME280;26529;51.530;11.754;2023-04-19T04:06:39;100966.44;;;19.66;47.78
40075;BME280;26529;51.530;11.754;2023-04-19T04:09:04;100969.19;;;19.64;47.69
40075;BME280;26529;51.530;11.754;2023-04-19T04:11:30;100970.91;;;19.65;47.76
40075;BME280;26529;51.530;11.754;2023-04-19T04:13:56;100970.06;;;19.65;47.68
40075;BME280;26529;51.530;11.754;2023-04-19T04:16:26;100967.38;;;19.65;47.66
40075;BME280;26529;51.530;11.754;2023-04-19T04:18:52;100971.94;;;19.63;47.65
40075;BME280;26529;51.530;11.754;2023-04-19T04:21:19;100964.81;;;19.63;47.74
40075;BME280;26529;51.530;11.754;2023-04-19T04:23:46;100972.78;;;19.63;47.69
40075;BME280;26529;51.530;11.754;2023-04-19T04:26:19;100966.63;;;19.63;47.67
40075;BME280;26529;51.530;11.754;2023-04-19T04:29:00;100968.34;;;19.64;47.68
40075;BME280;26529;51.530;11.754;2023-04-19T04:31:29;100968.34;;;19.64;47.69
40075;BME280;26529;51.530;11.754;2023-04-19T04:33:56;100966.63;;;19.63;47.63
40075;BME280;26529;51.530;11.754;2023-04-19T04:36:21;100965.69;;;19.64;47.67
40075;BME280;26529;51.530;11.754;2023-04-19T04:38:49;100960.44;;;19.62;47.67
40075;BME280;26529;51.530;11.754;2023-04-19T04:41:14;100963.00;;;19.64;47.56
40075;BME280;26529;51.530;11.754;2023-04-19T04:43:40;100959.59;;;19.62;47.58
40075;BME280;26529;51.530;11.754;2023-04-19T04:46:06;100956.13;;;19.60;47.70
40075;BME280;26529;51.530;11.754;2023-04-19T04:48:37;100959.59;;;19.62;47.63
40075;BME280;26529;51.530;11.754;2023-04-19T04:51:04;100959.59;;;19.62;47.71
40075;BME280;26529;51.530;11.754;2023-04-19T04:53:31;100957.84;;;19.61;47.67
40075;BME280;26529;51.530;11.754;2023-04-19T04:55:58;100961.31;;;19.63;47.60
40075;BME280;26529;51.530;11.754;2023-04-19T04:58:24;100964.91;;;19.62;47.64
40075;BME280;26529;51.530;11.754;2023-04-19T05:00:57;100958.72;;;19.61;47.45
40075;BME280;26529;51.530;11.754;2023-04-19T05:03:24;100964.03;;;19.61;47.63
40075;BME280;26529;51.530;11.754;2023-04-19T05:05:55;100963.16;;;19.61;47.67
40075;BME280;26529;51.530;11.754;2023-04-19T05:08:24;100956.13;;;19.60;47.70
40075;BME280;26529;51.530;11.754;2023-04-19T05:10:51;100958.78;;;19.60;47.62
40075;BME280;26529;51.530;11.754;2023-04-19T05:13:20;100956.13;;;19.60;47.60
40075;BME280;26529;51.530;11.754;2023-04-19T05:15:45;100964.13;;;19.60;47.69
40075;BME280;26529;51.530;11.754;2023-04-19T05:18:12;100957.94;;;19.59;47.59
40075;BME280;26529;51.530;11.754;2023-04-19T05:20:38;100964.03;;;19.61;47.81
40075;BME280;26529;51.530;11.754;2023-04-19T05:23:16;100964.13;;;19.60;47.69
40075;BME280;26529;51.530;11.754;2023-04-19T05:25:43;100970.38;;;19.59;47.58
40075;BME280;26529;51.530;11.754;2023-04-19T05:28:08;100957.84;;;19.61;47.74
40075;BME280;26529;51.530;11.754;2023-04-19T05:30:44;100958.78;;;19.60;47.70
40075;BME280;26529;51.530;11.754;2023-04-19T05:33:10;100958.78;;;19.60;47.72
40075;BME280;26529;51.530;11.754;2023-04-19T05:35:37;100961.47;;;19.60;47.64
40075;BME280;26529;51.530;11.754;2023-04-19T05:38:02;100954.41;;;19.59;47.61
40075;BME280;26529;51.530;11.754;2023-04-19T05:40:28;100964.13;;;19.60;47.64
40075;BME280;26529;51.530;11.754;2023-04-19T05:42:53;100960.63;;;19.59;47.61
40075;BME280;26529;51.530;11.754;2023-04-19T05:45:20;100957.09;;;19.59;47.56
40075;BME280;26529;51.530;11.754;2023-04-19T05:47:46;100956.13;;;19.60;47.76
40075;BME280;26529;51.530;11.754;2023-04-19T05:50:30;100960.63;;;19.59;47.58
40075;BME280;26529;51.530;11.754;2023-04-19T05:53:24;100956.25;;;19.58;47.58
40075;BME280;26529;51.530;11.754;2023-04-19T05:55:50;100962.31;;;19.60;47.68
40075;BME280;26529;51.530;11.754;2023-04-19T05:58:17;100961.47;;;19.60;47.66
40075;BME280;26529;51.530;11.754;2023-04-19T06:00:42;100957.84;;;19.61;47.56
40075;BME280;26529;51.530;11.754;2023-04-19T06:03:11;100955.19;;;19.61;47.41
40075;BME280;26529;51.530;11.754;2023-04-19T06:05:37;100952.53;;;19.61;47.57
40075;BME280;26529;51.530;11.754;2023-04-19T06:08:04;100946.44;;;19.59;47.53
40075;BME280;26529;51.530;11.754;2023-04-19T06:10:31;100956.13;;;19.60;47.58
40075;BME280;26529;51.530;11.754;2023-04-19T06:12:57;100947.22;;;19.61;47.64
40075;BME280;26529;51.530;11.754;2023-04-19T06:15:22;100953.47;;;19.60;47.58
40075;BME280;26529;51.530;11.754;2023-04-19T06:17:50;100953.47;;;19.60;47.58
40075;BME280;26529;51.530;11.754;2023-04-19T06:20:16;100959.66;;;19.60;47.77
40075;BME280;26529;51.530;11.754;2023-04-19T06:22:43;100953.47;;;19.60;47.54
40075;BME280;26529;51.530;11.754;2023-04-19T06:25:09;100949.09;;;19.59;47.58
40075;BME280;26529;51.530;11.754;2023-04-19T06:27:34;100957.84;;;19.61;47.65
40075;BME280;26529;51.530;11.754;2023-04-19T06:30:00;100955.19;;;19.61;47.46
40075;BME280;26529;51.530;11.754;2023-04-19T06:32:25;100958.72;;;19.61;47.43
40075;BME280;26529;51.530;11.754;2023-04-19T06:34:51;100955.97;;;19.63;47.51
40075;BME280;26529;51.530;11.754;2023-04-19T06:37:16;100961.47;;;19.60;47.40
40075;BME280;26529;51.530;11.754;2023-04-19T06:39:42;100955.19;;;19.61;47.54
40075;BME280;26529;51.530;11.754;2023-04-19T06:42:07;100957.84;;;19.61;47.44
40075;BME280;26529;51.530;11.754;2023-04-19T06:44:33;100955.09;;;19.62;47.38
40075;BME280;26529;51.530;11.754;2023-04-19T06:46:58;100949.78;;;19.62;47.41
40075;BME280;26529;51.530;11.754;2023-04-19T06:49:24;100947.22;;;19.61;47.54
40075;BME280;26529;51.530;11.754;2023-04-19T06:51:49;100951.63;;;19.62;47.39
40075;BME280;26529;51.530;11.754;2023-04-19T06:54:15;100940.97;;;19.62;47.46
40075;BME280;26529;51.530;11.754;2023-04-19T06:56:42;100955.97;;;19.63;47.49
40075;BME280;26529;51.530;11.754;2023-04-19T06:59:11;100945.34;;;19.63;47.43
40075;BME280;26529;51.530;11.754;2023-04-19T07:01:37;100944.47;;;19.62;47.44
40075;BME280;26529;51.530;11.754;2023-04-19T07:04:02;100944.53;;;19.61;47.39
40075;BME280;26529;51.530;11.754;2023-04-19T07:06:28;100940.88;;;19.63;47.35
40075;BME280;26529;51.530;11.754;2023-04-19T07:08:54;100948.00;;;19.63;47.35
40075;BME280;26529;51.530;11.754;2023-04-19T07:11:20;100940.09;;;19.61;47.48
40075;BME280;26529;51.530;11.754;2023-04-19T07:13:45;100942.69;;;19.63;47.38
40075;BME280;26529;51.530;11.754;2023-04-19T07:16:10;100936.56;;;19.61;47.44
40075;BME280;26529;51.530;11.754;2023-04-19T07:18:37;100943.63;;;19.62;47.43
40075;BME280;26529;51.530;11.754;2023-04-19T07:21:02;100940.03;;;19.63;47.41
40075;BME280;26529;51.530;11.754;2023-04-19T07:23:28;100940.03;;;19.63;47.51
40075;BME280;26529;51.530;11.754;2023-04-19T07:25:55;100941.72;;;19.64;47.23
40075;BME280;26529;51.530;11.754;2023-04-19T07:28:20;100937.25;;;19.64;47.42
40075;BME280;26529;51.530;11.754;2023-04-19T07:30:46;100935.53;;;19.63;47.27
40075;BME280;26529;51.530;11.754;2023-04-19T07:33:11;100936.41;;;19.64;47.41
40075;BME280;26529;51.530;11.754;2023-04-19T07:35:40;100925.78;;;19.64;47.36
40075;BME280;26529;51.530;11.754;2023-04-19T07:38:05;100923.94;;;19.64;47.44
40075;BME280;26529;51.530;11.754;2023-04-19T07:40:31;100916.84;;;19.65;47.23
40075;BME280;26529;51.530;11.754;2023-04-19T07:42:56;100915.13;;;19.64;47.40
40075;BME280;26529;51.530;11.754;2023-04-19T07:45:22;100908.94;;;19.63;47.44
40075;BME280;26529;51.530;11.754;2023-04-19T07:47:47;100898.22;;;19.65;47.29
40075;BME280;26529;51.530;11.754;2023-04-19T07:50:13;100904.41;;;19.65;47.36
40075;BME280;26529;51.530;11.754;2023-04-19T07:52:39;100900.88;;;19.65;47.37
40075;BME280;26529;51.530;11.754;2023-04-19T07:55:05;100900.00;;;19.64;47.30
40075;BME280;26529;51.530;11.754;2023-04-19T07:57:31;100901.66;;;19.67;47.56
40075;BME280;26529;51.530;11.754;2023-04-19T07:59:56;100902.59;;;19.66;47.37
40075;BME280;26529;51.530;11.754;2023-04-19T08:02:26;100906.13;;;19.66;47.21
40075;BME280;26529;51.530;11.754;2023-04-19T08:04:52;100899.94;;;19.66;47.40
40075;BME280;26529;51.530;11.754;2023-04-19T08:07:18;100906.97;;;19.67;47.34
40075;BME280;26529;51.530;11.754;2023-04-19T08:09:43;100902.59;;;19.66;47.33
40075;BME280;26529;51.530;11.754;2023-04-19T08:12:08;100898.97;;;19.67;47.10
40075;BME280;26529;51.530;11.754;2023-04-19T08:14:34;100895.47;;;19.66;47.38
40075;BME280;26529;51.530;11.754;2023-04-19T08:17:00;100895.38;;;19.68;47.33
40075;BME280;26529;51.530;11.754;2023-04-19T08:19:25;100891.00;;;19.67;47.32
40075;BME280;26529;51.530;11.754;2023-04-19T08:21:50;100903.28;;;19.70;47.31
40075;BME280;26529;51.530;11.754;2023-04-19T08:24:16;100897.13;;;19.69;47.21
40075;BME280;26529;51.530;11.754;2023-04-19T08:26:41;100902.44;;;19.69;47.32
40075;BME280;26529;51.530;11.754;2023-04-19T08:29:07;100905.00;;;19.71;47.41
40075;BME280;26529;51.530;11.754;2023-04-19T08:31:32;100897.13;;;19.69;47.40
40075;BME280;26529;51.530;11.754;2023-04-19T08:33:58;100905.88;;;19.71;47.33
40075;BME280;26529;51.530;11.754;2023-04-19T08:36:24;100890.78;;;19.72;47.24
40075;BME280;26529;51.530;11.754;2023-04-19T08:38:51;100898.63;;;19.73;47.32
40075;BME280;26529;51.530;11.754;2023-04-19T08:41:17;100893.31;;;19.73;47.36
40075;BME280;26529;51.530;11.754;2023-04-19T08:43:44;100892.38;;;19.74;47.35
40075;BME280;26529;51.530;11.754;2023-04-19T08:46:10;100893.31;;;19.73;47.37
40075;BME280;26529;51.530;11.754;2023-04-19T08:48:36;100889.72;;;19.74;47.27
40075;BME280;26529;51.530;11.754;2023-04-19T08:51:02;100890.50;;;19.76;47.28
40075;BME280;26529;51.530;11.754;2023-04-19T08:53:29;100888.59;;;19.78;47.29
40075;BME280;26529;51.530;11.754;2023-04-19T08:55:55;100881.56;;;19.77;47.29
40075;BME280;26529;51.530;11.754;2023-04-19T08:58:24;100873.59;;;19.77;47.30
40075;BME280;26529;51.530;11.754;2023-04-19T09:00:50;100872.63;;;19.78;47.06
40075;BME280;26529;51.530;11.754;2023-04-19T09:03:16;100871.69;;;19.79;47.24
40075;BME280;26529;51.530;11.754;2023-04-19T09:05:41;100860.09;;;19.80;47.31
40075;BME280;26529;51.530;11.754;2023-04-19T09:08:27;100858.31;;;19.81;47.13
40075;BME280;26529;51.530;11.754;2023-04-19T09:10:55;100853.81;;;19.82;47.24
40075;BME280;26529;51.530;11.754;2023-04-19T09:13:21;100851.09;;;19.83;47.17
40075;BME280;26529;51.530;11.754;2023-04-19T09:15:46;100850.25;;;19.83;47.31
40075;BME280;26529;51.530;11.754;2023-04-19T09:18:12;100845.75;;;19.83;47.16
40075;BME280;26529;51.530;11.754;2023-04-19T09:20:41;100842.16;;;19.84;47.21
40075;BME280;26529;51.530;11.754;2023-04-19T09:23:09;100845.69;;;19.85;47.31
40075;BME280;26529;51.530;11.754;2023-04-19T09:25:37;100835.03;;;19.85;47.23
40075;BME280;26529;51.530;11.754;2023-04-19T09:28:12;100841.13;;;19.87;47.31
40075;BME280;26529;51.530;11.754;2023-04-19T09:30:38;100841.91;;;19.89;47.22
40075;BME280;26529;51.530;11.754;2023-04-19T09:33:04;100832.19;;;19.88;47.15
40075;BME280;26529;51.530;11.754;2023-04-19T09:35:44;100840.09;;;19.89;47.28
40075;BME280;26529;51.530;11.754;2023-04-19T09:38:11;100831.16;;;19.90;47.20
40075;BME280;26529;51.530;11.754;2023-04-19T09:40:38;100836.41;;;19.92;46.97
40075;BME280;26529;51.530;11.754;2023-04-19T09:43:06;100833.72;;;19.92;47.17
40075;BME280;26529;51.530;11.754;2023-04-19T09:45:44;100830.13;;;19.93;47.14
40075;BME280;26529;51.530;11.754;2023-04-19T09:48:11;100819.47;;;19.93;47.13
40075;BME280;26529;51.530;11.754;2023-04-19T09:50:57;100814.94;;;19.95;47.28
40075;BME280;26529;51.530;11.754;2023-04-19T09:53:24;100815.88;;;19.94;47.19
40075;BME280;26529;51.530;11.754;2023-04-19T09:55:51;100814.84;;;19.97;47.14
40075;BME280;26529;51.530;11.754;2023-04-19T09:58:17;100816.56;;;19.98;47.11
40075;BME280;26529;51.530;11.754;2023-04-19T10:00:44;100802.34;;;19.99;47.11
40075;BME280;26529;51.530;11.754;2023-04-19T10:03:12;100797.03;;;19.99;47.17
40075;BME280;26529;51.530;11.754;2023-04-19T10:05:40;100799.56;;;20.00;47.10
40075;BME280;26529;51.530;11.754;2023-04-19T10:08:07;100795.94;;;20.01;47.19
40075;BME280;26529;51.530;11.754;2023-04-19T10:10:32;100787.03;;;20.02;47.18
40075;BME280;26529;51.530;11.754;2023-04-19T10:13:00;100778.09;;;20.03;47.14
40075;BME280;26529;51.530;11.754;2023-04-19T10:15:28;100786.84;;;20.05;47.06
40075;BME280;26529;51.530;11.754;2023-04-19T10:17:54;100785.97;;;20.05;46.99
40075;BME280;26529;51.530;11.754;2023-04-19T10:20:24;100773.53;;;20.05;47.11
40075;BME280;26529;51.530;11.754;2023-04-19T10:22:51;100776.00;;;20.09;47.05
40075;BME280;26529;51.530;11.754;2023-04-19T10:25:17;100780.41;;;20.10;47.04
40075;BME280;26529;51.530;11.754;2023-04-19T10:27:44;100770.50;;;20.12;46.89
40075;BME280;26529;51.530;11.754;2023-04-19T10:30:17;100772.22;;;20.13;47.06
40075;BME280;26529;51.530;11.754;2023-04-19T10:32:51;100772.13;;;20.14;47.06
40075;BME280;26529;51.530;11.754;2023-04-19T10:38:01;100760.44;;;20.17;46.91
40075;BME280;26529;51.530;11.754;2023-04-19T10:40:59;100748.09;;;20.16;46.83
40075;BME280;26529;51.530;11.754;2023-04-19T10:43:29;100746.28;;;20.16;47.01
40075;BME280;26529;51.530;11.754;2023-04-19T10:48:31;100744.19;;;20.22;47.02
40075;BME280;26529;51.530;11.754;2023-04-19T10:51:01;100730.78;;;20.23;46.83
40075;BME280;26529;51.530;11.754;2023-04-19T10:56:08;100726.22;;;20.25;46.91
40075;BME280;26529;51.530;11.754;2023-04-19T11:04:04;100718.22;;;20.25;47.14
40075;BME280;26529;51.530;11.754;2023-04-19T11:06:31;100719.19;;;20.24;47.01
40075;BME280;26529;51.530;11.754;2023-04-19T11:08:57;100716.53;;;20.24;47.06
40075;BME280;26529;51.530;11.754;2023-04-19T11:11:22;100711.88;;;20.28;47.05
40075;BME280;26529;51.530;11.754;2023-04-19T11:13:50;100703.00;;;20.27;46.98
40075;BME280;26529;51.530;11.754;2023-04-19T11:16:15;100695.03;;;20.27;47.06
40075;BME280;26529;51.530;11.754;2023-04-19T11:18:43;100695.13;;;20.26;47.02
40075;BME280;26529;51.530;11.754;2023-04-19T11:21:12;100696.06;;;20.25;46.98
40075;BME280;26529;51.530;11.754;2023-04-19T11:23:39;100696.63;;;20.30;46.85
40075;BME280;26529;51.530;11.754;2023-04-19T11:26:08;100685.91;;;20.31;46.88
40075;BME280;26529;51.530;11.754;2023-04-19T11:28:34;100676.97;;;20.32;46.96
40075;BME280;26529;51.530;11.754;2023-04-19T11:31:00;100684.84;;;20.34;47.03
40075;BME280;26529;51.530;11.754;2023-04-19T11:33:25;100683.03;;;20.34;47.10
40075;BME280;26529;51.530;11.754;2023-04-19T11:35:52;100678.00;;;20.30;47.22
40075;BME280;26529;51.530;11.754;2023-04-19T11:38:18;100675.91;;;20.35;46.99
40075;BME280;26529;51.530;11.754;2023-04-19T11:40:43;100663.44;;;20.36;46.99
40075;BME280;26529;51.530;11.754;2023-04-19T11:43:09;100654.53;;;20.37;47.19
40075;BME280;26529;51.530;11.754;2023-04-19T11:45:36;100663.56;;;20.34;47.15
40075;BME280;26529;51.530;11.754;2023-04-19T11:48:06;100655.28;;;20.39;47.18
40075;BME280;26529;51.530;11.754;2023-04-19T11:50:34;100656.22;;;20.38;47.38
40075;BME280;26529;51.530;11.754;2023-04-19T11:53:15;100654.88;;;20.45;47.46
40075;BME280;26529;51.530;11.754;2023-04-19T11:55:42;100649.56;;;20.45;47.41
40075;BME280;26529;51.530;11.754;2023-04-19T11:58:07;100652.88;;;20.49;47.54
40075;BME280;26529;51.530;11.754;2023-04-19T12:00:36;100644.91;;;20.49;47.64
40075;BME280;26529;51.530;11.754;2023-04-19T12:03:02;100638.91;;;20.45;47.64
40075;BME280;26529;51.530;11.754;2023-04-19T12:05:28;100642.53;;;20.44;47.53
40075;BME280;26529;51.530;11.754;2023-04-19T12:08:03;100637.94;;;20.46;47.55
40075;BME280;26529;51.530;11.754;2023-04-19T12:10:30;100631.66;;;20.47;47.37
40075;BME280;26529;51.530;11.754;2023-04-19T12:12:56;100624.63;;;20.46;47.63
40075;BME280;26529;51.530;11.754;2023-04-19T12:15:22;100624.63;;;20.46;47.48
40075;BME280;26529;51.530;11.754;2023-04-19T12:18:14;100621.00;;;20.47;47.51
40075;BME280;26529;51.530;11.754;2023-04-19T12:20:47;100628.03;;;20.48;47.54
40075;BME280;26529;51.530;11.754;2023-04-19T12:23:14;100628.03;;;20.48;47.83
40075;BME280;26529;51.530;11.754;2023-04-19T12:25:41;100622.72;;;20.48;47.53
40075;BME280;26529;51.530;11.754;2023-04-19T12:28:07;100612.06;;;20.48;47.62
40075;BME280;26529;51.530;11.754;2023-04-19T12:30:34;100614.34;;;20.54;47.43
40075;BME280;26529;51.530;11.754;2023-04-19T12:33:00;100607.00;;;20.58;47.48
40075;BME280;26529;51.530;11.754;2023-04-19T12:35:26;100593.41;;;20.63;47.51
40075;BME280;26529;51.530;11.754;2023-04-19T12:37:57;100587.66;;;20.69;47.42
40075;BME280;26529;51.530;11.754;2023-04-19T12:40:24;100586.81;;;20.68;47.47
40075;BME280;26529;51.530;11.754;2023-04-19T12:42:50;100582.31;;;20.69;47.67
40075;BME280;26529;51.530;11.754;2023-04-19T12:45:17;100585.94;;;20.68;47.65
40075;BME280;26529;51.530;11.754;2023-04-19T12:47:43;100585.28;;;20.64;47.68
40075;BME280;26529;51.530;11.754;2023-04-19T12:50:09;100594.91;;;20.67;47.81
40075;BME280;26529;51.530;11.754;2023-04-19T12:52:35;100612.81;;;20.65;47.62